createdAt,value
2019-03-05T08:35:24.916Z,0.53
2019-03-05T08:37:51.708Z,0.37
2019-03-05T08:40:18.365Z,0.50
2019-03-05T08:42:45.128Z,0.60
2019-03-05T08:45:12.809Z,0.47
2019-03-05T08:47:39.474Z,0.50
2019-03-05T08:50:07.604Z,0.40
2019-03-05T08:52:34.440Z,0.40
2019-03-05T08:55:03.570Z,0.30
2019-03-05T08:57:30.221Z,0.30
2019-03-05T08:59:57.028Z,0.30
2019-03-05T09:02:23.595Z,0.37
2019-03-05T09:04:50.276Z,0.33
2019-03-05T09:07:17.195Z,0.33
2019-03-05T09:09:43.861Z,0.30
2019-03-05T09:12:11.066Z,0.60
2019-03-05T09:14:37.725Z,0.37
2019-03-05T09:17:04.625Z,0.20
2019-03-05T09:19:31.452Z,0.30
2019-03-05T09:21:58.213Z,0.20
2019-03-05T09:24:24.863Z,0.33
2019-03-05T09:26:54.122Z,0.30
2019-03-05T09:29:20.779Z,0.30
2019-03-05T09:31:47.661Z,0.80
2019-03-05T09:34:14.486Z,0.30
2019-03-05T09:36:51.014Z,0.40
2019-03-05T09:39:12.812Z,0.23
2019-03-05T09:41:39.584Z,0.10
2019-03-05T09:44:06.577Z,0.20
2019-03-05T09:46:33.411Z,0.20
2019-03-05T09:49:00.196Z,0.60
2019-03-05T09:51:26.972Z,0.40
2019-03-05T09:53:53.629Z,0.20
2019-03-05T09:56:20.607Z,0.10
2019-03-05T09:58:47.305Z,0.20
2019-03-05T10:01:14.151Z,0.30
2019-03-05T10:03:40.808Z,0.10
2019-03-05T10:06:07.604Z,0.40
2019-03-05T10:08:34.366Z,0.20
2019-03-05T10:11:01.206Z,0.63
2019-03-05T10:13:29.082Z,0.30
2019-03-05T10:15:55.931Z,0.20
2019-03-05T10:18:22.643Z,0.23
2019-03-05T10:20:49.289Z,0.20
2019-03-05T10:23:16.119Z,0.37
2019-03-05T10:25:42.777Z,0.20
2019-03-05T10:28:09.549Z,0.20
2019-03-05T10:30:36.771Z,0.20
2019-03-05T10:33:04.287Z,0.53
2019-03-05T10:35:31.062Z,0.20
2019-03-05T10:37:59.452Z,0.20
2019-03-05T10:40:29.154Z,0.20
2019-03-05T10:42:55.795Z,0.20
2019-03-05T10:45:22.589Z,0.50
2019-03-05T10:47:50.705Z,0.20
2019-03-05T10:50:19.939Z,0.37
2019-03-05T10:52:46.720Z,0.27
2019-03-05T10:55:13.462Z,0.20
2019-03-05T10:57:40.373Z,0.40
2019-03-05T11:00:11.083Z,0.23
2019-03-05T11:02:37.650Z,0.30
2019-03-05T11:05:04.740Z,0.20
2019-03-05T11:07:31.594Z,0.30
2019-03-05T11:09:58.376Z,0.40
2019-03-05T11:12:25.173Z,0.23
2019-03-05T11:14:51.919Z,0.33
2019-03-05T11:17:18.573Z,0.40
2019-03-05T11:19:45.348Z,0.20
2019-03-05T11:22:12.118Z,0.30
2019-03-05T11:24:38.885Z,0.20
2019-03-05T11:27:06.712Z,0.20
2019-03-05T11:29:33.412Z,0.23
2019-03-05T11:32:00.313Z,0.20
2019-03-05T11:34:26.996Z,0.20
2019-03-05T11:36:53.863Z,0.40
2019-03-05T11:39:20.626Z,0.20
2019-03-05T11:41:47.294Z,0.20
2019-03-05T11:44:13.951Z,0.77
2019-03-05T11:46:40.607Z,0.30
2019-03-05T11:49:07.440Z,0.30
2019-03-05T11:51:34.126Z,0.20
2019-03-05T11:54:01.057Z,0.23
2019-03-05T11:56:27.829Z,0.20
2019-03-05T11:58:54.744Z,0.17
2019-03-05T12:01:25.776Z,0.33
2019-03-05T12:03:52.775Z,0.30
2019-03-05T12:06:19.551Z,0.20
2019-03-05T12:08:46.312Z,0.27
2019-03-05T12:11:13.207Z,0.20
2019-03-05T12:13:39.969Z,0.27
2019-03-05T12:16:09.660Z,0.33
2019-03-05T12:18:36.508Z,0.20
2019-03-05T12:21:03.317Z,0.33
2019-03-05T12:23:30.173Z,0.30
2019-03-05T12:25:56.871Z,0.20
2019-03-05T12:28:23.752Z,0.20
2019-03-05T12:30:50.462Z,0.20
2019-03-05T12:33:17.339Z,0.23
2019-03-05T12:35:44.146Z,0.37
2019-03-05T12:38:10.983Z,0.20
2019-03-05T12:40:38.181Z,0.20
2019-03-05T12:43:06.790Z,0.27
2019-03-05T12:45:33.564Z,0.10
2019-03-05T12:48:00.380Z,0.20
2019-03-05T12:50:27.212Z,0.20
2019-03-05T12:52:54.059Z,0.40
2019-03-05T12:55:20.807Z,0.40
2019-03-05T12:57:47.564Z,0.30
2019-03-05T13:00:17.362Z,0.30
2019-03-05T13:02:44.180Z,0.17
2019-03-05T13:05:12.290Z,0.13
2019-03-05T13:07:41.882Z,0.53
2019-03-05T13:10:10.301Z,0.10
2019-03-05T13:12:39.984Z,0.30
2019-03-05T13:15:07.900Z,0.30
2019-03-05T13:17:34.726Z,0.30
2019-03-05T13:20:01.644Z,0.30
2019-03-05T13:22:28.898Z,0.30
2019-03-05T13:24:57.619Z,0.20
2019-03-05T13:27:24.345Z,0.30
2019-03-05T13:29:51.400Z,0.30
2019-03-05T13:32:20.843Z,0.27
2019-03-05T13:34:46.848Z,0.27
2019-03-05T13:37:13.415Z,0.20
2019-03-05T13:39:40.209Z,0.30
2019-03-05T13:42:07.970Z,0.50
2019-03-05T13:44:35.115Z,0.27
2019-03-05T13:47:05.876Z,0.30
2019-03-05T13:50:24.204Z,0.20
2019-03-05T13:53:34.772Z,0.20
2019-03-05T13:56:30.673Z,0.30
2019-03-05T13:59:27.944Z,0.27
2019-03-05T14:01:54.822Z,0.40
2019-03-05T14:04:29.939Z,0.47
2019-03-05T14:07:15.643Z,0.40
2019-03-05T14:09:41.592Z,0.20
2019-03-05T14:12:08.466Z,0.30
2019-03-05T14:14:35.234Z,0.30
2019-03-05T14:17:09.856Z,0.10
2019-03-05T14:19:36.735Z,0.30
2019-03-05T14:22:03.561Z,0.20
2019-03-05T14:24:30.289Z,0.50
2019-03-05T14:26:57.123Z,0.17
2019-03-05T14:29:23.861Z,0.20
2019-03-05T14:31:50.685Z,0.60
2019-03-05T14:34:17.407Z,0.20
2019-03-05T14:36:44.205Z,0.20
2019-03-05T14:39:20.415Z,0.23
2019-03-05T14:41:47.242Z,0.57
2019-03-05T14:44:14.298Z,0.80
2019-03-05T14:46:41.456Z,0.30
2019-03-05T14:49:08.321Z,0.17
2019-03-05T14:51:34.974Z,0.30
2019-03-05T14:54:01.775Z,0.20
2019-03-05T14:56:28.569Z,0.30
2019-03-05T14:58:55.324Z,0.40
2019-03-05T15:01:22.135Z,0.27
2019-03-05T15:03:49.019Z,0.40
2019-03-05T15:06:15.939Z,0.27
2019-03-05T15:08:42.606Z,0.20
2019-03-05T15:11:09.414Z,0.20
2019-03-05T15:13:36.098Z,0.30
2019-03-05T15:16:02.896Z,0.23
2019-03-05T15:18:29.960Z,0.20
2019-03-05T15:20:56.812Z,0.20
2019-03-05T15:23:23.627Z,0.40
2019-03-05T15:25:55.678Z,0.40
2019-03-05T15:28:22.538Z,0.20
2019-03-05T15:30:49.252Z,0.63
2019-03-05T15:33:17.052Z,0.43
2019-03-05T15:35:43.820Z,0.30
2019-03-05T15:38:10.603Z,0.40
2019-03-05T15:40:37.547Z,0.30
2019-03-05T15:43:04.364Z,0.40
2019-03-05T15:45:31.063Z,0.40
2019-03-05T15:47:57.946Z,0.60
2019-03-05T15:50:24.754Z,0.67
2019-03-05T15:52:51.550Z,0.50
2019-03-05T15:55:18.259Z,0.30
2019-03-05T15:57:46.147Z,0.50
2019-03-05T16:00:17.833Z,0.50
2019-03-05T16:02:51.658Z,0.57
2019-03-05T16:05:20.750Z,0.47
2019-03-05T16:07:48.097Z,0.30
2019-03-05T16:10:17.191Z,0.50
2019-03-05T16:12:43.840Z,0.60
2019-03-05T16:15:10.789Z,0.40
2019-03-05T16:17:37.589Z,0.90
2019-03-05T16:20:04.943Z,0.70
2019-03-05T16:22:31.627Z,0.30
2019-03-05T16:24:58.319Z,0.50
2019-03-05T16:27:24.882Z,0.40
2019-03-05T16:29:55.407Z,0.27
2019-03-05T16:32:28.229Z,0.20
2019-03-05T16:35:32.673Z,0.60
2019-03-05T16:38:07.647Z,0.57
2019-03-05T16:41:00.020Z,0.30
2019-03-05T16:43:49.009Z,0.30
2019-03-05T16:46:32.502Z,0.40
2019-03-05T16:49:18.826Z,0.37
2019-03-05T16:51:50.680Z,0.30
2019-03-05T16:54:33.799Z,0.30
2019-03-05T16:57:05.971Z,0.30
2019-03-05T16:59:53.211Z,0.50
2019-03-05T17:02:47.365Z,0.20
2019-03-05T17:05:35.156Z,0.20
2019-03-05T17:08:19.913Z,0.30
2019-03-05T17:11:18.570Z,0.20
2019-03-05T17:13:45.472Z,0.50
2019-03-05T17:16:12.388Z,0.47
2019-03-05T17:18:39.158Z,0.27
2019-03-05T17:21:05.937Z,0.20
2019-03-05T17:23:32.880Z,0.20
2019-03-05T17:25:59.623Z,0.30
2019-03-05T17:28:26.389Z,0.20
2019-03-05T17:30:53.027Z,0.30
2019-03-05T17:33:19.829Z,0.77
2019-03-05T17:35:46.462Z,0.30
2019-03-05T17:38:13.316Z,0.30
2019-03-05T17:40:40.166Z,0.50
2019-03-05T17:43:06.819Z,0.30
2019-03-05T17:45:33.644Z,0.20
2019-03-05T17:48:00.323Z,0.20
2019-03-05T17:50:27.103Z,0.30
2019-03-05T17:52:53.753Z,0.20
2019-03-05T17:55:24.162Z,0.20
2019-03-05T17:57:49.287Z,0.30
2019-03-05T18:00:25.085Z,0.30
2019-03-05T18:02:51.898Z,0.10
2019-03-05T18:05:19.121Z,0.30
2019-03-05T18:07:46.011Z,0.37
2019-03-05T18:10:12.763Z,0.50
2019-03-05T18:12:39.632Z,0.20
2019-03-05T18:15:07.309Z,0.30
2019-03-05T18:17:34.118Z,0.30
2019-03-05T18:20:00.912Z,0.40
2019-03-05T18:22:27.544Z,0.10
2019-03-05T18:24:54.114Z,0.30
2019-03-05T18:27:20.778Z,0.27
2019-03-05T18:29:47.517Z,0.40
2019-03-05T18:32:14.178Z,0.43
2019-03-05T18:34:40.750Z,0.30
2019-03-05T18:37:07.420Z,0.60
2019-03-05T18:39:34.061Z,0.33
2019-03-05T18:42:00.822Z,0.60
2019-03-05T18:44:27.490Z,0.40
2019-03-05T18:46:54.265Z,0.30
2019-03-05T18:49:21.230Z,0.50
2019-03-05T18:51:47.864Z,0.57
2019-03-05T18:54:14.546Z,0.50
2019-03-05T18:56:41.296Z,0.60
2019-03-05T18:59:07.987Z,0.70
2019-03-05T19:01:34.775Z,0.60
2019-03-05T19:04:01.471Z,0.80
2019-03-05T19:06:28.298Z,0.47
2019-03-05T19:08:55.088Z,0.60
2019-03-05T19:11:21.925Z,0.63
2019-03-05T19:13:48.694Z,0.50
2019-03-05T19:16:15.501Z,0.50
2019-03-05T19:18:42.278Z,0.40
2019-03-05T19:21:09.003Z,0.63
2019-03-05T19:23:35.979Z,0.33
2019-03-05T19:26:03.141Z,0.60
2019-03-05T19:28:29.907Z,0.60
2019-03-05T19:30:56.709Z,0.60
2019-03-05T19:33:23.298Z,0.63
2019-03-05T19:35:49.957Z,0.60
2019-03-05T19:38:16.938Z,0.33
2019-03-05T19:40:43.743Z,0.60
2019-03-05T19:43:10.492Z,0.60
2019-03-05T19:45:37.178Z,0.60
2019-03-05T19:48:03.981Z,0.70
2019-03-05T19:50:30.867Z,0.60
2019-03-05T19:52:57.934Z,0.47
2019-03-05T19:55:24.747Z,0.70
2019-03-05T19:57:53.318Z,0.77
2019-03-05T20:00:30.098Z,0.43
2019-03-05T20:02:56.792Z,0.70
2019-03-05T20:05:23.536Z,0.60
2019-03-05T20:07:50.296Z,0.80
2019-03-05T20:10:18.396Z,0.57
2019-03-05T20:12:45.184Z,0.80
2019-03-05T20:15:13.346Z,0.73
2019-03-05T20:17:40.173Z,0.80
2019-03-05T20:20:07.799Z,1.37
2019-03-05T20:22:34.568Z,1.27
2019-03-05T20:25:01.492Z,0.80
2019-03-05T20:27:28.161Z,0.93
2019-03-05T20:29:55.010Z,0.67
2019-03-05T20:32:22.071Z,1.30
2019-03-05T20:34:49.068Z,0.67
2019-03-05T20:37:16.995Z,0.97
2019-03-05T20:39:43.840Z,1.20
2019-03-05T20:42:10.550Z,0.90
2019-03-05T20:44:37.317Z,0.73
2019-03-05T20:47:04.626Z,1.03
2019-03-05T20:49:33.699Z,1.20
2019-03-05T20:52:00.629Z,0.73
2019-03-05T20:54:28.513Z,0.97
2019-03-05T20:56:55.271Z,0.80
2019-03-05T20:59:23.036Z,1.00
2019-03-05T21:01:51.993Z,0.80
2019-03-05T21:04:25.953Z,1.27
2019-03-05T21:06:53.961Z,0.60
2019-03-05T21:09:22.278Z,1.30
2019-03-05T21:11:49.297Z,1.30
2019-03-05T21:14:16.167Z,1.10
2019-03-05T21:16:42.921Z,1.40
2019-03-05T21:19:09.735Z,1.30
2019-03-05T21:21:36.656Z,1.20
2019-03-05T21:24:03.634Z,1.70
2019-03-05T21:26:31.075Z,1.63
2019-03-05T21:28:57.927Z,1.13
2019-03-05T21:31:24.847Z,0.90
2019-03-05T21:33:52.048Z,1.10
2019-03-05T21:36:18.937Z,1.07
2019-03-05T21:38:45.702Z,1.43
2019-03-05T21:41:12.452Z,1.10
2019-03-05T21:43:39.345Z,1.50
2019-03-05T21:46:10.329Z,1.20
2019-03-05T21:48:39.617Z,1.10
2019-03-05T21:51:07.437Z,0.90
2019-03-05T21:53:34.278Z,1.30
2019-03-05T21:56:01.002Z,1.13
2019-03-05T21:58:27.839Z,1.33
2019-03-05T22:00:54.624Z,1.47
2019-03-05T22:03:21.403Z,2.43
2019-03-05T22:05:48.129Z,2.00
2019-03-05T22:08:15.034Z,2.40
2019-03-05T22:10:41.896Z,2.03
2019-03-05T22:13:08.816Z,2.30
2019-03-05T22:15:35.938Z,1.80
2019-03-05T22:18:02.956Z,1.60
2019-03-05T22:20:30.101Z,1.47
2019-03-05T22:22:57.269Z,1.60
2019-03-05T22:25:24.159Z,1.23
2019-03-05T22:27:51.112Z,1.20
2019-03-05T22:30:21.915Z,1.47
2019-03-05T22:32:48.701Z,1.60
2019-03-05T22:35:16.355Z,1.40
2019-03-05T22:37:43.248Z,1.40
2019-03-05T22:40:10.177Z,1.30
2019-03-05T22:42:36.860Z,1.20
2019-03-05T22:45:04.290Z,1.30
2019-03-05T22:47:31.022Z,1.17
2019-03-05T22:49:57.984Z,1.17
2019-03-05T22:52:26.259Z,1.10
2019-03-05T22:54:53.205Z,1.30
2019-03-05T22:57:21.316Z,1.40
2019-03-05T22:59:48.811Z,1.40
2019-03-05T23:02:15.478Z,1.37
2019-03-05T23:04:43.586Z,1.43
2019-03-05T23:07:10.816Z,1.33
2019-03-05T23:09:37.558Z,1.57
2019-03-05T23:12:04.341Z,1.40
2019-03-05T23:14:31.696Z,1.50
2019-03-05T23:16:58.460Z,1.70
2019-03-05T23:19:25.559Z,1.83
2019-03-05T23:21:52.320Z,1.67
2019-03-05T23:24:19.095Z,1.80
2019-03-05T23:26:45.775Z,1.60
2019-03-05T23:29:12.641Z,2.27
2019-03-05T23:31:39.871Z,2.30
2019-03-05T23:34:06.561Z,2.30
2019-03-05T23:36:33.482Z,1.90
2019-03-05T23:39:00.244Z,2.20
2019-03-05T23:41:26.935Z,1.83
2019-03-05T23:43:53.613Z,2.10
2019-03-05T23:46:20.333Z,1.73
2019-03-05T23:48:47.108Z,2.40
2019-03-05T23:51:13.985Z,2.10
2019-03-05T23:53:40.694Z,1.90
2019-03-05T23:56:07.329Z,2.20
2019-03-05T23:58:33.883Z,2.07
